Time;durP1;ratioP1;P1;durP2;ratioP2;P2;SDS_P1;SDS_P2;PMS_P1;PMS_P2;Temp;Humidity;BMP_temperature;BMP_pressure;BME280_temperature;BME280_humidity;BME280_pressure;Samples;Min_cycle;Max_cycle;Signal;HPM_P1;HPM_P2
2021/04/18 00:02:25;;;;;;;49.35;46.35;;;16.40;99.90;;;;;;5072583;28;20488;-61
2021/04/18 00:04:52;;;;;;;49.65;46.65;;;16.20;99.90;;;;;;5072459;28;20460;-62
2021/04/18 00:07:20;;;;;;;49.33;46.45;;;16.10;99.90;;;;;;5073837;28;20025;-61
2021/04/18 00:09:47;;;;;;;49.70;46.95;;;16.10;99.90;;;;;;5073670;28;20499;-61
2021/04/18 00:12:15;;;;;;;47.83;45.22;;;16.20;99.90;;;;;;5073671;28;20050;-61
2021/04/18 00:14:42;;;;;;;44.38;41.72;;;16.20;99.90;;;;;;5073639;28;20017;-61
2021/04/18 00:17:09;;;;;;;40.85;38.30;;;16.50;99.90;;;;;;5073557;28;20108;-59
2021/04/18 00:19:37;;;;;;;39.38;36.70;;;16.60;99.90;;;;;;5073558;28;20024;-60
2021/04/18 00:22:04;;;;;;;38.05;35.67;;;16.80;99.90;;;;;;5073422;28;20028;-60
2021/04/18 00:24:31;;;;;;;38.60;36.10;;;17.00;99.90;;;;;;5073523;28;20025;-60
2021/04/18 00:26:59;;;;;;;36.17;33.83;;;17.10;99.90;;;;;;5073303;28;20021;-59
2021/04/18 00:29:26;;;;;;;35.45;33.35;;;17.50;99.90;;;;;;5073357;28;20017;-59
2021/04/18 00:31:53;;;;;;;33.10;30.80;;;17.70;99.90;;;;;;5073331;28;20027;-60
2021/04/18 00:34:21;;;;;;;31.65;29.88;;;17.60;99.90;;;;;;5073171;28;20025;-60
2021/04/18 00:36:48;;;;;;;31.35;29.58;;;17.70;99.90;;;;;;5073351;28;20021;-60
2021/04/18 00:39:16;;;;;;;27.90;26.33;;;18.10;99.90;;;;;;5071551;28;20048;-60
2021/04/18 00:41:43;;;;;;;25.70;24.25;;;18.30;99.90;;;;;;5073035;28;20480;-59
2021/04/18 00:44:13;;;;;;;26.10;24.25;;;18.20;99.90;;;;;;5073193;28;20029;-60
2021/04/18 00:46:41;;;;;;;24.33;22.83;;;18.40;99.90;;;;;;5073009;28;20064;-60
2021/04/18 00:49:08;;;;;;;23.00;21.42;;;18.20;99.90;;;;;;5073152;28;20448;-60
2021/04/18 00:51:36;;;;;;;23.73;21.88;;;18.20;99.90;;;;;;5073106;28;20074;-59
2021/04/18 00:54:04;;;;;;;21.85;20.25;;;18.60;99.90;;;;;;5073091;28;20104;-60
2021/04/18 00:56:31;;;;;;;19.83;18.55;;;18.60;99.90;;;;;;5072915;28;20107;-60
2021/04/18 00:58:59;;;;;;;19.20;17.80;;;18.40;99.90;;;;;;5073133;28;20028;-59
2021/04/18 01:01:26;;;;;;;18.02;16.60;;;18.40;99.90;;;;;;5073013;28;20028;-59
2021/04/18 01:03:53;;;;;;;18.02;16.77;;;18.10;99.90;;;;;;5072913;28;20508;-60
2021/04/18 01:06:21;;;;;;;17.25;16.05;;;18.30;99.90;;;;;;5071563;28;20032;-59
2021/04/18 01:08:48;;;;;;;15.35;14.35;;;18.40;99.90;;;;;;5072793;28;20020;-59
2021/04/18 01:11:16;;;;;;;15.30;14.30;;;18.40;99.90;;;;;;5072651;28;20024;-59
2021/04/18 01:13:43;;;;;;;16.08;14.65;;;18.60;99.90;;;;;;5072520;28;20488;-60
2021/04/18 01:16:10;;;;;;;17.42;16.25;;;18.40;99.90;;;;;;5072849;28;20020;-59
2021/04/18 01:18:37;;;;;;;15.57;14.15;;;18.40;99.90;;;;;;5072879;28;20028;-59
2021/04/18 01:21:12;;;;;;;14.45;13.55;;;18.70;99.90;;;;;;5072775;28;20021;-59
2021/04/18 01:23:41;;;;;;;12.10;10.98;;;19.20;99.90;;;;;;5072752;28;20043;-59
2021/04/18 01:26:09;;;;;;;11.18;10.20;;;19.10;99.90;;;;;;5072544;28;20028;-59
2021/04/18 01:28:37;;;;;;;9.63;8.65;;;19.40;99.90;;;;;;5072677;28;20021;-59
2021/04/18 01:31:05;;;;;;;10.80;9.20;;;19.40;99.90;;;;;;5072655;28;20017;-59
2021/04/18 01:33:34;;;;;;;9.20;8.50;;;19.60;99.90;;;;;;5072520;28;20027;-59
2021/04/18 01:36:06;;;;;;;10.75;8.65;;;19.90;99.90;;;;;;5072593;28;20027;-61
2021/04/18 01:38:34;;;;;;;8.85;8.07;;;19.90;99.90;;;;;;5072538;28;20048;-59
2021/04/18 01:41:02;;;;;;;9.00;8.15;;;19.80;99.90;;;;;;5071165;28;20029;-59
2021/04/18 01:43:29;;;;;;;8.30;7.50;;;19.90;99.90;;;;;;5072423;28;20025;-59
2021/04/18 01:45:56;;;;;;;8.95;8.02;;;19.90;99.90;;;;;;5071088;28;20031;-59
2021/04/18 01:48:24;;;;;;;9.07;7.32;;;20.10;99.90;;;;;;5071191;28;20021;-60
2021/04/18 01:50:52;;;;;;;7.70;7.00;;;20.30;99.60;;;;;;5072417;28;20523;-59
2021/04/18 01:53:20;;;;;;;9.27;7.70;;;20.70;99.20;;;;;;5072429;28;20024;-58
2021/04/18 01:55:47;;;;;;;9.18;7.72;;;20.80;99.50;;;;;;5072362;28;20452;-58
2021/04/18 01:58:15;;;;;;;8.27;7.25;;;20.70;99.10;;;;;;5072463;28;20086;-59
2021/04/18 02:00:42;;;;;;;9.13;8.23;;;20.70;99.10;;;;;;5072329;28;20032;-62
2021/04/18 02:03:09;;;;;;;7.40;6.60;;;20.80;98.00;;;;;;5072287;28;20020;-60
2021/04/18 02:05:37;;;;;;;7.85;6.50;;;21.00;98.00;;;;;;5072308;28;20025;-61
2021/04/18 02:08:05;;;;;;;7.15;6.35;;;21.60;97.10;;;;;;5072178;28;20025;-58
2021/04/18 02:10:32;;;;;;;7.97;6.85;;;21.30;96.30;;;;;;5072255;28;20043;-60
2021/04/18 02:12:59;;;;;;;7.38;6.88;;;21.10;96.90;;;;;;5072214;28;20475;-59
2021/04/18 02:15:27;;;;;;;8.18;7.55;;;21.30;96.60;;;;;;5072305;28;20157;-58
2021/04/18 02:17:54;;;;;;;7.43;6.93;;;21.30;96.30;;;;;;5072124;28;20103;-56
2021/04/18 02:20:21;;;;;;;10.30;7.20;;;21.10;97.40;;;;;;5072144;28;20121;-56
2021/04/18 02:22:49;;;;;;;7.95;7.30;;;21.10;97.20;;;;;;5071944;28;20025;-55
2021/04/18 02:25:16;;;;;;;7.32;6.72;;;20.80;96.60;;;;;;5075636;28;20017;-57
2021/04/18 02:27:44;;;;;;;7.72;6.80;;;21.00;96.70;;;;;;5075623;28;20025;-57
2021/04/18 02:30:12;;;;;;;9.05;7.20;;;21.70;96.20;;;;;;5075714;28;20427;-59
2021/04/18 02:32:41;;;;;;;7.68;6.88;;;22.10;97.40;;;;;;5075602;28;20044;-60
2021/04/18 02:35:09;;;;;;;9.02;8.30;;;22.30;95.80;;;;;;5075828;28;20472;-59
2021/04/18 02:37:37;;;;;;;8.88;8.20;;;21.60;96.30;;;;;;5075633;28;20099;-62
2021/04/18 02:40:04;;;;;;;8.82;8.00;;;21.20;96.70;;;;;;5075416;28;20037;-61
2021/04/18 02:42:32;;;;;;;8.70;8.00;;;21.30;97.30;;;;;;5074184;28;20131;-61
2021/04/18 02:44:59;;;;;;;9.70;8.45;;;21.30;96.90;;;;;;5075468;28;20090;-64
2021/04/18 02:47:26;;;;;;;8.82;7.95;;;21.10;97.90;;;;;;5075322;28;20031;-59
2021/04/18 02:49:54;;;;;;;7.95;7.35;;;21.80;97.50;;;;;;5075365;28;20025;-60
2021/04/18 02:52:21;;;;;;;17.38;10.10;;;22.20;96.90;;;;;;5075372;28;20069;-59
2021/04/18 02:54:48;;;;;;;16.50;9.85;;;22.60;96.60;;;;;;5075311;28;20100;-61
2021/04/18 02:57:16;;;;;;;8.48;7.57;;;22.50;96.30;;;;;;5075199;28;20047;-59
2021/04/18 02:59:43;;;;;;;8.60;7.80;;;22.60;95.90;;;;;;5075238;28;20099;-62
2021/04/18 03:02:10;;;;;;;8.38;7.57;;;22.60;95.60;;;;;;5075126;28;20115;-60
2021/04/18 03:04:38;;;;;;;8.15;7.55;;;22.50;95.60;;;;;;5074984;28;20028;-63
2021/04/18 03:07:05;;;;;;;8.60;7.85;;;21.70;95.60;;;;;;5074919;28;20021;-60
2021/04/18 03:09:32;;;;;;;9.25;7.95;;;22.00;96.30;;;;;;5074901;28;20017;-59
2021/04/18 03:12:00;;;;;;;10.13;8.93;;;21.90;96.10;;;;;;5074776;28;20017;-59
2021/04/18 03:14:27;;;;;;;9.02;8.35;;;21.80;95.90;;;;;;5074860;28;20465;-58
2021/04/18 03:16:55;;;;;;;9.43;8.50;;;21.60;96.60;;;;;;5074860;28;20039;-62
2021/04/18 03:19:22;;;;;;;9.45;8.75;;;21.40;96.10;;;;;;5074656;28;20028;-61
2021/04/18 03:21:49;;;;;;;9.57;8.77;;;21.60;97.00;;;;;;5074744;28;20029;-60
2021/04/18 03:24:17;;;;;;;10.07;9.07;;;21.60;96.70;;;;;;5074575;28;20027;-60
2021/04/18 03:26:44;;;;;;;9.93;8.95;;;21.10;96.40;;;;;;5074625;28;20027;-61
2021/04/18 03:29:11;;;;;;;9.63;8.60;;;21.00;97.10;;;;;;5074404;28;20095;-61
2021/04/18 03:31:39;;;;;;;9.05;8.35;;;21.00;96.60;;;;;;5074724;28;20021;-61
2021/04/18 03:34:06;;;;;;;11.43;10.25;;;20.90;97.90;;;;;;5073195;28;20449;-63
2021/04/18 03:36:33;;;;;;;11.32;8.90;;;20.90;98.50;;;;;;5073930;28;20047;-60
2021/04/18 03:39:01;;;;;;;10.23;9.20;;;20.80;98.90;;;;;;5072922;28;20413;-61
2021/04/18 03:41:28;;;;;;;10.13;9.15;;;20.60;99.60;;;;;;5074227;28;20044;-61
2021/04/18 03:43:55;;;;;;;12.93;9.75;;;20.70;99.90;;;;;;5072971;28;20112;-62
2021/04/18 03:46:23;;;;;;;10.77;9.77;;;20.80;99.80;;;;;;5074639;28;20025;-60
2021/04/18 03:48:50;;;;;;;10.95;9.60;;;21.00;99.70;;;;;;5074248;28;20017;-61
2021/04/18 03:51:20;;;;;;;10.90;9.82;;;20.90;99.80;;;;;;5074395;28;20045;-62
2021/04/18 03:53:47;;;;;;;9.80;8.82;;;20.90;99.90;;;;;;5072789;28;20031;-61
2021/04/18 03:56:14;;;;;;;10.40;9.35;;;20.80;99.90;;;;;;5072762;28;20017;-60
2021/04/18 03:58:42;;;;;;;9.63;8.65;;;20.60;99.80;;;;;;5073966;28;20030;-60
2021/04/18 04:01:09;;;;;;;10.52;9.70;;;20.70;99.90;;;;;;5073943;28;20100;-61
2021/04/18 04:03:38;;;;;;;10.57;9.57;;;20.60;99.40;;;;;;5074082;28;20075;-59
2021/04/18 04:06:06;;;;;;;10.48;9.50;;;20.60;99.70;;;;;;5073762;28;20048;-57
2021/04/18 04:08:33;;;;;;;10.70;9.68;;;20.70;99.90;;;;;;5073627;28;20035;-58
2021/04/18 04:11:01;;;;;;;11.02;9.85;;;21.10;99.90;;;;;;5073604;28;20090;-60
2021/04/18 04:13:28;;;;;;;14.63;9.77;;;21.30;99.40;;;;;;5073564;28;20031;-61
2021/04/18 04:15:56;;;;;;;11.90;9.45;;;21.60;99.10;;;;;;5073451;28;20465;-59
2021/04/18 04:18:23;;;;;;;10.95;9.85;;;21.90;98.30;;;;;;5073586;28;20370;-61
2021/04/18 04:20:50;;;;;;;10.43;9.52;;;21.50;98.70;;;;;;5073537;28;20028;-62
2021/04/18 04:23:18;;;;;;;10.15;7.80;;;21.70;99.20;;;;;;5073386;28;20044;-60
2021/04/18 04:25:45;;;;;;;8.15;7.32;;;21.80;99.40;;;;;;5072168;28;20081;-60
2021/04/18 04:28:14;;;;;;;10.55;7.93;;;22.00;99.30;;;;;;5073318;28;20031;-61
2021/04/18 04:30:42;;;;;;;10.77;7.57;;;22.20;99.90;;;;;;5073390;28;20017;-59
2021/04/18 04:33:09;;;;;;;10.57;7.57;;;22.30;99.00;;;;;;5073385;28;20017;-62
2021/04/18 04:35:39;;;;;;;9.80;7.85;;;22.30;98.60;;;;;;5071948;28;20024;-59
2021/04/18 04:38:07;;;;;;;7.90;7.10;;;22.00;99.00;;;;;;5073391;28;20028;-61
2021/04/18 04:40:34;;;;;;;8.00;7.18;;;22.00;99.70;;;;;;5071940;28;20052;-60
2021/04/18 04:43:01;;;;;;;10.30;9.30;;;21.80;99.60;;;;;;5073392;28;20032;-62
2021/04/18 04:45:29;;;;;;;10.85;10.00;;;21.70;99.90;;;;;;5071850;28;20370;-58
2021/04/18 04:47:56;;;;;;;10.65;7.32;;;21.50;99.90;;;;;;5071947;28;20048;-59
2021/04/18 04:50:24;;;;;;;8.85;8.13;;;21.40;99.90;;;;;;5073223;28;20388;-59
2021/04/18 04:52:52;;;;;;;8.02;7.28;;;21.20;99.90;;;;;;5073090;28;20078;-59
2021/04/18 04:55:20;;;;;;;8.60;7.88;;;21.20;99.90;;;;;;5073000;28;20031;-60
2021/04/18 04:57:47;;;;;;;10.00;9.10;;;21.30;99.90;;;;;;5073047;28;20114;-61
2021/04/18 05:00:15;;;;;;;10.15;8.80;;;21.10;99.90;;;;;;5073093;28;20500;-59
2021/04/18 05:02:42;;;;;;;9.38;8.48;;;21.00;99.90;;;;;;5073252;28;20069;-57
2021/04/18 05:05:11;;;;;;;9.57;8.77;;;21.00;99.90;;;;;;5073005;28;20027;-60
2021/04/18 05:07:38;;;;;;;9.43;8.73;;;21.00;99.90;;;;;;5071444;28;20534;-59
2021/04/18 05:10:06;;;;;;;9.35;8.27;;;21.10;99.90;;;;;;5072788;28;20016;-58
2021/04/18 05:12:33;;;;;;;9.02;7.75;;;21.00;99.90;;;;;;5072770;28;20020;-61
2021/04/18 05:15:01;;;;;;;9.52;8.60;;;21.00;99.90;;;;;;5072803;28;20021;-57
2021/04/18 05:17:29;;;;;;;10.05;8.95;;;21.00;99.90;;;;;;5072668;28;20484;-58
2021/04/18 05:19:56;;;;;;;10.15;8.90;;;21.00;99.90;;;;;;5072780;28;20016;-58
2021/04/18 05:22:23;;;;;;;9.27;8.63;;;21.10;99.90;;;;;;5072593;28;20122;-57
2021/04/18 05:24:51;;;;;;;11.00;9.90;;;20.90;99.90;;;;;;5072783;28;20064;-62
2021/04/18 05:27:18;;;;;;;10.25;9.25;;;20.80;99.90;;;;;;5072519;28;20025;-60
2021/04/18 05:29:46;;;;;;;9.98;9.23;;;20.60;99.90;;;;;;5072708;28;20024;-60
2021/04/18 05:32:13;;;;;;;8.52;7.70;;;20.60;99.90;;;;;;5072617;28;20104;-58
2021/04/18 05:34:41;;;;;;;9.07;8.38;;;20.70;99.90;;;;;;5072656;28;20024;-59
2021/04/18 05:37:08;;;;;;;7.97;7.22;;;20.50;99.90;;;;;;5072462;28;20036;-57
2021/04/18 05:39:36;;;;;;;9.85;8.50;;;20.50;99.90;;;;;;5072439;28;20074;-60
2021/04/18 05:42:04;;;;;;;9.32;8.45;;;20.60;99.90;;;;;;5071314;28;20119;-60
2021/04/18 05:44:31;;;;;;;9.82;8.50;;;20.40;99.90;;;;;;5072499;28;20025;-60
2021/04/18 05:46:59;;;;;;;9.15;8.40;;;20.50;99.90;;;;;;5072375;28;20035;-61
2021/04/18 05:49:26;;;;;;;10.23;9.32;;;20.30;99.90;;;;;;5072553;28;20024;-60
2021/04/18 05:51:54;;;;;;;10.45;9.52;;;20.30;99.90;;;;;;5072331;28;20020;-60
2021/04/18 05:54:21;;;;;;;10.35;9.45;;;20.30;99.90;;;;;;5072278;28;20025;-59
2021/04/18 05:56:48;;;;;;;10.07;9.30;;;20.20;99.90;;;;;;5072435;28;20027;-60
2021/04/18 05:59:16;;;;;;;10.00;9.15;;;20.10;99.90;;;;;;5074618;28;20027;-60
2021/04/18 06:01:44;;;;;;;11.35;10.45;;;20.10;99.90;;;;;;5076140;28;20039;-60
2021/04/18 06:04:12;;;;;;;9.75;9.13;;;20.10;99.90;;;;;;5076022;28;20031;-60
2021/04/18 06:06:39;;;;;;;10.85;9.95;;;20.00;99.90;;;;;;5074709;28;20032;-60
2021/04/18 06:09:06;;;;;;;10.15;9.18;;;20.00;99.90;;;;;;5074776;28;20433;-60
2021/04/18 06:11:34;;;;;;;10.15;9.45;;;;;;;;;;5074904;28;20020;-58
2021/04/18 06:14:01;;;;;;;10.23;9.23;;;19.80;99.90;;;;;;5075955;28;20100;-60
2021/04/18 06:16:28;;;;;;;10.10;9.30;;;19.70;99.90;;;;;;5075865;28;20087;-60
2021/04/18 06:18:55;;;;;;;10.40;9.60;;;19.70;99.90;;;;;;5075805;28;20055;-60
2021/04/18 06:21:23;;;;;;;9.98;9.35;;;19.60;99.90;;;;;;5075628;28;20554;-60
2021/04/18 06:23:50;;;;;;;11.00;10.10;;;19.60;99.90;;;;;;5075475;28;20025;-59
2021/04/18 06:26:18;;;;;;;10.80;9.80;;;19.50;99.90;;;;;;5074193;28;20078;-60
2021/04/18 06:28:45;;;;;;;9.75;8.88;;;19.50;99.90;;;;;;5075804;28;20027;-59
2021/04/18 06:31:12;;;;;;;9.65;8.75;;;19.50;99.90;;;;;;5075623;28;20065;-59
2021/04/18 06:33:41;;;;;;;9.90;9.20;;;19.40;99.90;;;;;;5075594;28;20016;-58
2021/04/18 06:36:08;;;;;;;9.70;8.95;;;19.40;99.90;;;;;;5075478;28;20123;-59
2021/04/18 06:38:35;;;;;;;10.30;9.57;;;19.30;99.90;;;;;;5073911;28;20028;-58
2021/04/18 06:41:03;;;;;;;9.57;8.77;;;19.20;99.90;;;;;;5074088;28;20071;-59
2021/04/18 06:43:31;;;;;;;9.88;9.07;;;19.10;99.90;;;;;;5075319;28;20032;-59
2021/04/18 06:45:59;;;;;;;11.60;10.65;;;19.00;99.90;;;;;;5075427;28;20025;-59
2021/04/18 06:48:28;;;;;;;10.50;9.52;;;18.90;99.90;;;;;;5075214;28;20028;-59
2021/04/18 06:50:56;;;;;;;10.18;9.38;;;18.80;99.90;;;;;;5075325;28;20359;-61
2021/04/18 06:53:23;;;;;;;7.22;6.60;;;18.80;99.90;;;;;;5074016;28;20388;-60
2021/04/18 06:55:51;;;;;;;7.50;6.57;;;18.80;99.90;;;;;;5075174;28;20017;-59
2021/04/18 06:58:18;;;;;;;9.02;7.03;;;18.70;99.90;;;;;;5075230;28;20020;-59
2021/04/18 07:00:45;;;;;;;9.57;8.77;;;18.60;99.90;;;;;;5075135;28;20020;-58
2021/04/18 07:03:15;;;;;;;9.13;8.32;;;18.50;99.90;;;;;;5075030;28;20024;-59
2021/04/18 07:05:48;;;;;;;9.93;9.23;;;18.40;99.90;;;;;;5075017;28;20017;-59
2021/04/18 07:08:35;;;;;;;10.10;9.50;;;18.30;99.90;;;;;;5074944;28;20062;-60
2021/04/18 07:11:20;;;;;;;11.50;10.68;;;18.20;99.90;;;;;;5073990;28;20025;-61
2021/04/18 07:13:48;;;;;;;11.05;10.35;;;18.20;99.90;;;;;;5075070;28;20013;-59
2021/04/18 07:16:30;;;;;;;9.55;8.95;;;18.00;99.90;;;;;;5074981;28;20071;-60
2021/04/18 07:18:58;;;;;;;8.98;8.30;;;18.00;99.90;;;;;;5075194;28;20477;-59
2021/04/18 07:21:49;;;;;;;9.18;8.52;;;17.90;99.90;;;;;;5073483;28;20065;-60
2021/04/18 07:24:18;;;;;;;10.05;9.38;;;17.80;99.90;;;;;;5073221;28;20120;-60
2021/04/18 07:26:57;;;;;;;8.70;7.90;;;17.60;99.90;;;;;;5074518;28;20024;-60
2021/04/18 07:29:29;;;;;;;11.93;11.02;;;17.60;99.90;;;;;;5074624;28;20453;-59
2021/04/18 07:32:00;;;;;;;11.68;10.88;;;17.50;99.90;;;;;;5074785;28;20016;-60
2021/04/18 07:34:36;;;;;;;12.63;11.57;;;17.40;99.90;;;;;;5074540;28;20385;-60
2021/04/18 07:37:12;;;;;;;9.55;8.85;;;17.30;99.90;;;;;;5073273;28;20078;-60
2021/04/18 07:39:56;;;;;;;11.00;10.25;;;17.10;99.90;;;;;;5074282;28;20055;-60
2021/04/18 07:42:44;;;;;;;11.75;10.80;;;17.00;99.90;;;;;;5074440;28;20397;-59
2021/04/18 07:45:15;;;;;;;11.88;10.93;;;16.90;99.90;;;;;;5074204;28;20028;-60
2021/04/18 07:47:45;;;;;;;12.85;11.95;;;16.80;99.90;;;;;;5074560;28;20453;-60
2021/04/18 07:50:23;;;;;;;13.10;12.05;;;16.70;99.90;;;;;;5072840;28;20025;-61
2021/04/18 07:52:51;;;;;;;13.82;12.73;;;16.60;99.90;;;;;;5073019;28;20056;-59
2021/04/18 07:55:19;;;;;;;14.52;13.38;;;16.50;99.90;;;;;;5074006;28;20025;-60
2021/04/18 07:57:47;;;;;;;16.65;15.20;;;16.50;99.90;;;;;;5074149;28;20129;-60
2021/04/18 08:00:15;;;;;;;17.17;15.43;;;16.50;99.90;;;;;;5073893;28;20017;-60
2021/04/18 08:02:48;;;;;;;17.98;16.30;;;16.40;99.90;;;;;;5074126;28;20082;-60
2021/04/18 08:05:16;;;;;;;17.88;16.58;;;16.30;99.90;;;;;;5073994;28;20021;-60
2021/04/18 08:08:08;;;;;;;17.63;16.20;;;16.20;99.90;;;;;;5072482;28;20445;-59
2021/04/18 08:10:38;;;;;;;17.27;16.08;;;16.20;99.90;;;;;;5073680;28;20115;-60
2021/04/18 08:13:16;;;;;;;18.50;17.27;;;16.10;99.90;;;;;;5073817;28;20017;-59
2021/04/18 08:16:04;;;;;;;19.40;17.92;;;16.10;99.90;;;;;;5073790;28;20019;-60
2021/04/18 08:18:46;;;;;;;20.00;18.80;;;16.00;99.90;;;;;;5073689;28;20079;-59
2021/04/18 08:21:24;;;;;;;21.25;20.05;;;16.00;99.90;;;;;;5073450;28;20025;-59
2021/04/18 08:23:53;;;;;;;22.92;21.02;;;16.00;99.90;;;;;;5073554;28;20112;-59
2021/04/18 08:26:25;;;;;;;22.70;21.40;;;16.00;99.90;;;;;;5073489;28;20017;-59
2021/04/18 08:28:55;;;;;;;24.73;22.92;;;16.00;99.90;;;;;;5073319;28;20025;-60
2021/04/18 08:31:30;;;;;;;25.88;24.25;;;15.90;99.90;;;;;;5073228;28;20027;-58
2021/04/18 08:34:00;;;;;;;26.08;24.08;;;15.90;99.90;;;;;;5073259;28;20020;-59
2021/04/18 08:36:34;;;;;;;27.00;24.83;;;15.80;99.90;;;;;;5072819;28;20052;-60
2021/04/18 08:39:07;;;;;;;26.25;24.60;;;15.90;99.90;;;;;;5072735;28;20079;-60
2021/04/18 08:41:44;;;;;;;28.90;26.67;;;15.90;99.90;;;;;;5072892;28;20465;-60
2021/04/18 08:44:31;;;;;;;29.33;27.48;;;15.80;99.90;;;;;;5073034;28;20089;-59
2021/04/18 08:47:08;;;;;;;31.90;29.77;;;15.90;99.90;;;;;;5073160;28;20024;-59
2021/04/18 08:49:40;;;;;;;31.70;29.70;;;15.80;99.90;;;;;;5073178;28;20013;-59
2021/04/18 08:52:12;;;;;;;31.95;29.60;;;15.70;99.90;;;;;;5073347;28;20020;-59
2021/04/18 08:54:42;;;;;;;33.70;31.40;;;15.70;99.90;;;;;;5073019;28;20024;-60
2021/04/18 08:57:11;;;;;;;;;;;15.70;99.90;;;;;;5073542;28;20059;-59
2021/04/18 08:59:39;;;;;;;34.72;32.00;;;15.70;99.90;;;;;;5073046;28;19904;-58
2021/04/18 09:02:08;;;;;;;34.67;32.08;;;15.60;99.90;;;;;;5073153;28;20469;-59
2021/04/18 09:04:47;;;;;;;34.05;31.65;;;15.60;99.90;;;;;;5072866;28;20485;-59
2021/04/18 09:07:20;;;;;;;35.22;32.83;;;15.60;99.90;;;;;;5072824;28;20025;-59
2021/04/18 09:09:48;;;;;;;35.00;32.45;;;15.60;99.90;;;;;;5073006;28;20047;-60
2021/04/18 09:12:18;;;;;;;33.90;31.67;;;15.50;99.90;;;;;;5072819;28;20036;-59
2021/04/18 09:14:48;;;;;;;34.67;31.95;;;15.50;99.90;;;;;;5071367;28;20537;-59
2021/04/18 09:17:15;;;;;;;34.88;32.55;;;15.40;99.90;;;;;;5072703;28;20032;-59
2021/04/18 09:19:51;;;;;;;36.65;34.08;;;15.40;99.90;;;;;;5072792;28;20031;-59
2021/04/18 09:22:20;;;;;;;36.67;33.88;;;15.50;99.90;;;;;;5072899;28;20389;-61
2021/04/18 09:24:54;;;;;;;36.90;34.22;;;15.70;99.90;;;;;;5072655;28;20047;-61
2021/04/18 09:27:31;;;;;;;37.47;34.80;;;15.70;99.90;;;;;;5072619;28;20385;-62
2021/04/18 09:30:01;;;;;;;39.22;36.30;;;15.60;99.90;;;;;;5072774;28;20040;-62
2021/04/18 09:32:36;;;;;;;36.93;34.33;;;15.60;99.90;;;;;;5071408;28;20385;-62
2021/04/18 09:35:05;;;;;;;38.28;35.63;;;15.50;99.90;;;;;;5075212;28;20017;-62
2021/04/18 09:37:38;;;;;;;37.80;35.00;;;15.50;99.90;;;;;;5076690;28;20025;-63
2021/04/18 09:40:15;;;;;;;39.17;36.17;;;15.40;99.90;;;;;;5076532;28;20045;-62
2021/04/18 09:42:48;;;;;;;39.88;37.08;;;15.30;99.90;;;;;;5075344;28;20028;-62
2021/04/18 09:45:18;;;;;;;40.08;37.22;;;15.30;99.90;;;;;;5075245;28;20511;-62
2021/04/18 09:47:51;;;;;;;40.80;37.70;;;15.20;99.90;;;;;;5076518;28;20025;-62
2021/04/18 09:50:25;;;;;;;38.92;35.97;;;15.20;99.90;;;;;;5076497;28;20103;-62
2021/04/18 09:52:53;;;;;;;39.28;36.38;;;15.20;99.90;;;;;;5076525;28;20028;-62
2021/04/18 09:55:20;;;;;;;39.17;36.15;;;15.20;99.90;;;;;;5076323;28;20448;-62
2021/04/18 09:58:00;;;;;;;38.70;35.70;;;15.20;99.90;;;;;;5075056;28;20024;-62
2021/04/18 10:00:35;;;;;;;39.47;36.47;;;15.20;99.90;;;;;;5076291;28;20025;-62
2021/04/18 10:03:13;;;;;;;38.53;35.55;;;15.10;99.90;;;;;;5076427;28;20024;-63
2021/04/18 10:05:46;;;;;;;42.22;39.30;;;15.00;99.90;;;;;;5076236;28;20082;-63
2021/04/18 10:08:30;;;;;;;39.22;36.08;;;15.00;99.90;;;;;;5076049;28;20039;-62
2021/04/18 10:11:07;;;;;;;40.58;37.67;;;15.00;99.90;;;;;;5076003;28;20021;-62
2021/04/18 10:13:55;;;;;;;45.92;42.55;;;14.90;99.90;;;;;;5076178;28;20023;-62
2021/04/18 10:16:25;;;;;;;41.10;38.30;;;14.90;99.90;;;;;;5074707;28;20480;-62
2021/04/18 10:19:05;;;;;;;41.35;38.05;;;14.80;99.90;;;;;;5075874;28;20032;-63
2021/04/18 10:21:32;;;;;;;42.00;38.70;;;14.80;99.90;;;;;;5075933;28;20028;-62
2021/04/18 10:24:00;;;;;;;42.05;38.75;;;14.70;99.90;;;;;;5074514;28;20055;-62
2021/04/18 10:26:28;;;;;;;43.95;40.88;;;14.70;99.90;;;;;;5075756;28;20021;-63
2021/04/18 10:28:56;;;;;;;42.83;39.53;;;14.70;99.90;;;;;;5075795;28;20098;-63
2021/04/18 10:31:25;;;;;;;42.85;39.90;;;14.70;99.90;;;;;;5075553;28;20078;-63
2021/04/18 10:33:52;;;;;;;41.17;38.03;;;14.70;99.90;;;;;;5075634;28;20476;-63
2021/04/18 10:36:20;;;;;;;44.42;41.13;;;14.70;99.90;;;;;;5075604;28;20016;-63
2021/04/18 10:38:47;;;;;;;41.53;38.63;;;14.70;99.90;;;;;;5075364;28;20033;-62
2021/04/18 10:41:14;;;;;;;44.53;41.03;;;14.60;99.90;;;;;;5075528;28;20099;-64
2021/04/18 10:43:42;;;;;;;44.08;40.88;;;14.60;99.90;;;;;;5075554;28;20091;-64
2021/04/18 10:46:09;;;;;;;48.15;44.90;;;14.60;99.90;;;;;;5075441;28;20048;-64
2021/04/18 10:48:36;;;;;;;46.72;43.15;;;14.50;99.90;;;;;;5075245;28;20027;-64
2021/04/18 10:51:05;;;;;;;45.80;42.60;;;14.60;99.90;;;;;;5075351;28;20025;-64
2021/04/18 10:53:32;;;;;;;44.17;41.00;;;14.50;99.90;;;;;;5075331;28;20021;-64
2021/04/18 10:55:59;;;;;;;44.95;41.75;;;14.50;99.90;;;;;;5075302;28;20021;-64
2021/04/18 10:58:26;;;;;;;47.10;43.70;;;14.60;99.90;;;;;;5075260;28;20050;-64
2021/04/18 11:00:54;;;;;;;47.55;44.08;;;14.60;99.90;;;;;;5075146;28;20070;-64
2021/04/18 11:03:21;;;;;;;48.00;44.72;;;14.50;99.90;;;;;;5075309;28;20024;-64
2021/04/18 11:05:50;;;;;;;55.28;51.42;;;14.50;99.90;;;;;;5075093;28;20036;-64
2021/04/18 11:08:18;;;;;;;51.03;47.63;;;14.50;99.90;;;;;;5074984;28;20021;-64
2021/04/18 11:10:45;;;;;;;51.95;48.17;;;14.40;99.90;;;;;;5075028;28;20017;-64
2021/04/18 11:13:13;;;;;;;47.70;44.22;;;14.50;99.90;;;;;;5075097;28;20017;-64
2021/04/18 11:15:40;;;;;;;55.28;51.88;;;14.50;99.90;;;;;;5075110;28;20024;-64
2021/04/18 11:18:10;;;;;;;51.13;47.63;;;14.50;99.90;;;;;;5073638;28;20040;-64
2021/04/18 11:20:39;;;;;;;60.33;56.58;;;14.50;99.90;;;;;;5074843;28;20027;-64
2021/04/18 11:23:06;;;;;;;58.25;54.45;;;14.50;99.90;;;;;;5074782;28;20016;-64
2021/04/18 11:25:33;;;;;;;59.13;55.28;;;14.50;99.90;;;;;;5074732;28;20024;-64
2021/04/18 11:28:01;;;;;;;60.53;56.47;;;14.40;99.90;;;;;;5074644;28;20048;-63
2021/04/18 11:30:28;;;;;;;64.85;60.78;;;14.40;99.90;;;;;;5074636;28;20020;-64
2021/04/18 11:32:55;;;;;;;55.10;51.60;;;14.30;99.90;;;;;;5074627;28;20131;-64
2021/04/18 11:35:23;;;;;;;59.60;55.60;;;14.30;99.90;;;;;;5074492;28;20013;-64
2021/04/18 11:37:54;;;;;;;59.50;55.40;;;14.20;99.90;;;;;;5073158;28;20029;-64
2021/04/18 11:40:24;;;;;;;55.13;51.38;;;14.20;99.90;;;;;;5074296;28;20045;-64
2021/04/18 11:42:52;;;;;;;58.90;55.17;;;14.30;99.90;;;;;;5074538;28;20021;-64
2021/04/18 11:45:20;;;;;;;59.97;56.13;;;14.30;99.90;;;;;;5074328;28;20096;-64
2021/04/18 11:47:48;;;;;;;49.20;45.95;;;14.20;99.90;;;;;;5073008;28;20033;-63
2021/04/18 11:50:17;;;;;;;50.30;47.10;;;14.20;99.90;;;;;;5074329;28;20025;-64
2021/04/18 11:52:44;;;;;;;50.25;46.70;;;14.10;99.90;;;;;;5072964;28;20021;-64
2021/04/18 11:55:13;;;;;;;54.22;50.75;;;14.10;99.90;;;;;;5074204;28;20027;-64
2021/04/18 11:57:40;;;;;;;55.95;52.22;;;14.10;99.90;;;;;;5073681;28;20500;-64
2021/04/18 12:00:09;;;;;;;55.97;52.28;;;14.10;99.90;;;;;;5074352;28;20112;-63
2021/04/18 12:02:37;;;;;;;54.65;50.75;;;14.10;99.90;;;;;;5074096;28;20032;-63
2021/04/18 12:05:07;;;;;;;52.22;48.45;;;14.00;99.90;;;;;;5073864;28;20028;-63
2021/04/18 12:07:34;;;;;;;49.35;45.95;;;14.00;99.90;;;;;;5073661;28;20029;-62
2021/04/18 12:10:02;;;;;;;53.92;49.80;;;14.00;99.90;;;;;;5072606;28;20534;-62
2021/04/18 12:12:29;;;;;;;51.85;48.17;;;14.00;99.90;;;;;;5073829;28;20031;-62
2021/04/18 12:14:56;;;;;;;54.53;50.92;;;13.90;99.90;;;;;;5073817;28;20481;-64
2021/04/18 12:17:24;;;;;;;55.58;51.83;;;13.80;99.90;;;;;;5073797;28;20028;-64
2021/04/18 12:19:51;;;;;;;53.60;49.97;;;13.90;99.90;;;;;;5073699;28;20526;-64
2021/04/18 12:22:18;;;;;;;53.08;49.40;;;13.90;99.90;;;;;;5072330;28;20388;-64
2021/04/18 12:24:46;;;;;;;53.33;49.47;;;13.90;99.90;;;;;;5073701;28;20627;-64
2021/04/18 12:27:13;;;;;;;54.85;51.20;;;13.90;99.90;;;;;;5073527;28;20052;-62
2021/04/18 12:29:41;;;;;;;57.03;53.35;;;13.90;99.90;;;;;;5073558;28;20029;-63
2021/04/18 12:32:08;;;;;;;56.05;52.17;;;13.90;99.90;;;;;;5072256;28;20044;-63
2021/04/18 12:34:35;;;;;;;57.35;53.58;;;14.00;99.90;;;;;;5073455;28;20017;-64
2021/04/18 12:37:03;;;;;;;62.67;58.80;;;14.10;99.90;;;;;;5072169;28;20115;-63
2021/04/18 12:39:31;;;;;;;53.45;49.80;;;14.10;99.90;;;;;;5073259;28;20037;-64
2021/04/18 12:41:58;;;;;;;58.78;54.58;;;14.20;99.90;;;;;;5073372;28;20024;-64
2021/04/18 12:44:25;;;;;;;61.10;56.72;;;14.20;99.90;;;;;;5073346;28;20485;-64
2021/04/18 12:46:53;;;;;;;54.67;51.28;;;14.20;99.90;;;;;;5073198;28;20025;-64